sensor_id;sensor_type;location;lat;lon;timestamp;P1;durP1;ratioP1;P2;durP2;ratioP2
36353;SDS011;22383;51.114;13.666;2023-04-24T00:00:22;7.40;;;3.17;;
36353;SDS011;22383;51.114;13.666;2023-04-24T00:02:49;7.97;;;3.95;;
36353;SDS011;22383;51.114;13.666;2023-04-24T00:05:17;6.40;;;3.65;;
36353;SDS011;22383;51.114;13.666;2023-04-24T00:07:44;9.18;;;4.03;;
36353;SDS011;22383;51.114;13.666;2023-04-24T00:10:12;12.27;;;4.65;;
36353;SDS011;22383;51.114;13.666;2023-04-24T00:12:39;6.88;;;3.72;;
36353;SDS011;22383;51.114;13.666;2023-04-24T00:15:06;7.97;;;3.35;;
36353;SDS011;22383;51.114;13.666;2023-04-24T00:17:34;5.95;;;3.28;;
36353;SDS011;22383;51.114;13.666;2023-04-24T00:20:02;6.70;;;3.80;;
36353;SDS011;22383;51.114;13.666;2023-04-24T00:22:31;9.23;;;3.95;;
36353;SDS011;22383;51.114;13.666;2023-04-24T00:24:59;7.38;;;3.40;;
36353;SDS011;22383;51.114;13.666;2023-04-24T00:27:26;7.65;;;3.70;;
36353;SDS011;22383;51.114;13.666;2023-04-24T00:29:54;5.55;;;2.95;;
36353;SDS011;22383;51.114;13.666;2023-04-24T00:32:21;5.65;;;3.28;;
36353;SDS011;22383;51.114;13.666;2023-04-24T00:34:49;6.43;;;3.65;;
36353;SDS011;22383;51.114;13.666;2023-04-24T00:37:16;5.43;;;3.15;;
36353;SDS011;22383;51.114;13.666;2023-04-24T00:39:44;9.93;;;3.80;;
36353;SDS011;22383;51.114;13.666;2023-04-24T00:44:39;6.78;;;3.33;;
36353;SDS011;22383;51.114;13.666;2023-04-24T00:47:09;6.00;;;3.10;;
36353;SDS011;22383;51.114;13.666;2023-04-24T00:49:38;10.55;;;3.60;;
36353;SDS011;22383;51.114;13.666;2023-04-24T00:52:05;5.63;;;3.05;;
36353;SDS011;22383;51.114;13.666;2023-04-24T00:54:35;7.93;;;3.67;;
36353;SDS011;22383;51.114;13.666;2023-04-24T00:57:02;9.63;;;3.20;;
36353;SDS011;22383;51.114;13.666;2023-04-24T00:59:31;6.68;;;3.00;;
36353;SDS011;22383;51.114;13.666;2023-04-24T01:01:58;5.95;;;2.97;;
36353;SDS011;22383;51.114;13.666;2023-04-24T01:04:25;5.32;;;3.13;;
36353;SDS011;22383;51.114;13.666;2023-04-24T01:06:53;8.50;;;3.42;;
36353;SDS011;22383;51.114;13.666;2023-04-24T01:09:23;7.22;;;3.42;;
36353;SDS011;22383;51.114;13.666;2023-04-24T01:11:51;7.28;;;3.13;;
36353;SDS011;22383;51.114;13.666;2023-04-24T01:14:18;6.88;;;2.80;;
36353;SDS011;22383;51.114;13.666;2023-04-24T01:16:48;6.20;;;2.58;;
36353;SDS011;22383;51.114;13.666;2023-04-24T01:19:15;4.82;;;2.60;;
36353;SDS011;22383;51.114;13.666;2023-04-24T01:21:45;7.45;;;2.80;;
36353;SDS011;22383;51.114;13.666;2023-04-24T01:24:14;7.50;;;3.00;;
36353;SDS011;22383;51.114;13.666;2023-04-24T01:26:41;8.63;;;2.92;;
36353;SDS011;22383;51.114;13.666;2023-04-24T01:29:08;4.80;;;2.80;;
36353;SDS011;22383;51.114;13.666;2023-04-24T01:31:37;5.63;;;2.75;;
36353;SDS011;22383;51.114;13.666;2023-04-24T01:34:06;6.80;;;2.45;;
36353;SDS011;22383;51.114;13.666;2023-04-24T01:36:35;5.03;;;3.03;;
36353;SDS011;22383;51.114;13.666;2023-04-24T01:39:03;9.48;;;3.88;;
36353;SDS011;22383;51.114;13.666;2023-04-24T01:41:30;4.43;;;2.70;;
36353;SDS011;22383;51.114;13.666;2023-04-24T01:43:59;4.38;;;2.30;;
36353;SDS011;22383;51.114;13.666;2023-04-24T01:46:26;6.07;;;2.42;;
36353;SDS011;22383;51.114;13.666;2023-04-24T01:48:54;5.80;;;3.30;;
36353;SDS011;22383;51.114;13.666;2023-04-24T01:51:21;5.38;;;2.25;;
36353;SDS011;22383;51.114;13.666;2023-04-24T01:53:48;4.85;;;2.35;;
36353;SDS011;22383;51.114;13.666;2023-04-24T01:56:16;4.18;;;2.40;;
36353;SDS011;22383;51.114;13.666;2023-04-24T01:58:43;4.00;;;2.40;;
36353;SDS011;22383;51.114;13.666;2023-04-24T02:01:15;5.68;;;2.33;;
36353;SDS011;22383;51.114;13.666;2023-04-24T02:03:47;3.53;;;1.85;;
36353;SDS011;22383;51.114;13.666;2023-04-24T02:06:14;3.33;;;2.00;;
36353;SDS011;22383;51.114;13.666;2023-04-24T02:08:41;3.50;;;1.95;;
36353;SDS011;22383;51.114;13.666;2023-04-24T02:11:09;4.93;;;2.20;;
36353;SDS011;22383;51.114;13.666;2023-04-24T02:13:36;3.63;;;2.13;;
36353;SDS011;22383;51.114;13.666;2023-04-24T02:16:04;4.60;;;2.28;;
36353;SDS011;22383;51.114;13.666;2023-04-24T02:18:31;5.70;;;2.58;;
36353;SDS011;22383;51.114;13.666;2023-04-24T02:20:58;6.10;;;2.88;;
36353;SDS011;22383;51.114;13.666;2023-04-24T02:23:25;6.10;;;2.72;;
36353;SDS011;22383;51.114;13.666;2023-04-24T02:25:54;4.95;;;2.97;;
36353;SDS011;22383;51.114;13.666;2023-04-24T02:28:25;4.15;;;1.90;;
36353;SDS011;22383;51.114;13.666;2023-04-24T02:30:53;2.15;;;1.13;;
36353;SDS011;22383;51.114;13.666;2023-04-24T02:33:21;3.65;;;1.80;;
36353;SDS011;22383;51.114;13.666;2023-04-24T02:35:49;4.07;;;1.30;;
36353;SDS011;22383;51.114;13.666;2023-04-24T02:38:16;2.60;;;1.48;;
36353;SDS011;22383;51.114;13.666;2023-04-24T02:40:43;3.20;;;1.38;;
36353;SDS011;22383;51.114;13.666;2023-04-24T02:43:11;3.85;;;1.33;;
36353;SDS011;22383;51.114;13.666;2023-04-24T02:45:39;1.50;;;1.23;;
36353;SDS011;22383;51.114;13.666;2023-04-24T02:48:06;2.97;;;0.90;;
36353;SDS011;22383;51.114;13.666;2023-04-24T02:50:33;1.80;;;1.25;;
36353;SDS011;22383;51.114;13.666;2023-04-24T02:53:00;3.22;;;1.20;;
36353;SDS011;22383;51.114;13.666;2023-04-24T02:55:28;2.22;;;1.20;;
36353;SDS011;22383;51.114;13.666;2023-04-24T02:57:55;1.80;;;1.20;;
36353;SDS011;22383;51.114;13.666;2023-04-24T03:00:23;2.20;;;1.23;;
36353;SDS011;22383;51.114;13.666;2023-04-24T03:02:50;2.92;;;1.08;;
36353;SDS011;22383;51.114;13.666;2023-04-24T03:05:18;3.05;;;1.27;;
36353;SDS011;22383;51.114;13.666;2023-04-24T03:07:48;1.00;;;0.90;;
36353;SDS011;22383;51.114;13.666;2023-04-24T03:10:20;1.48;;;0.82;;
36353;SDS011;22383;51.114;13.666;2023-04-24T03:12:52;1.20;;;1.10;;
36353;SDS011;22383;51.114;13.666;2023-04-24T03:15:20;1.33;;;0.80;;
36353;SDS011;22383;51.114;13.666;2023-04-24T03:17:47;2.00;;;1.13;;
36353;SDS011;22383;51.114;13.666;2023-04-24T03:20:15;1.63;;;0.93;;
36353;SDS011;22383;51.114;13.666;2023-04-24T03:22:43;1.77;;;1.00;;
36353;SDS011;22383;51.114;13.666;2023-04-24T03:25:11;6.40;;;1.35;;
36353;SDS011;22383;51.114;13.666;2023-04-24T03:27:38;1.40;;;0.90;;
36353;SDS011;22383;51.114;13.666;2023-04-24T03:30:26;1.98;;;0.90;;
36353;SDS011;22383;51.114;13.666;2023-04-24T03:32:58;2.83;;;1.58;;
36353;SDS011;22383;51.114;13.666;2023-04-24T03:35:28;1.52;;;0.90;;
36353;SDS011;22383;51.114;13.666;2023-04-24T03:37:59;2.75;;;1.05;;
36353;SDS011;22383;51.114;13.666;2023-04-24T03:40:49;1.38;;;0.70;;
36353;SDS011;22383;51.114;13.666;2023-04-24T03:43:50;2.95;;;0.73;;
36353;SDS011;22383;51.114;13.666;2023-04-24T03:46:17;2.22;;;1.13;;
36353;SDS011;22383;51.114;13.666;2023-04-24T03:48:51;2.88;;;1.10;;
36353;SDS011;22383;51.114;13.666;2023-04-24T03:51:23;2.60;;;0.95;;
36353;SDS011;22383;51.114;13.666;2023-04-24T03:53:54;2.92;;;1.08;;
36353;SDS011;22383;51.114;13.666;2023-04-24T03:56:25;3.38;;;1.25;;
36353;SDS011;22383;51.114;13.666;2023-04-24T03:58:52;1.60;;;0.80;;
36353;SDS011;22383;51.114;13.666;2023-04-24T04:01:20;2.40;;;1.00;;
36353;SDS011;22383;51.114;13.666;2023-04-24T04:03:59;1.40;;;0.68;;
36353;SDS011;22383;51.114;13.666;2023-04-24T04:06:27;0.57;;;0.50;;
36353;SDS011;22383;51.114;13.666;2023-04-24T04:08:56;1.67;;;1.08;;
36353;SDS011;22383;51.114;13.666;2023-04-24T04:11:24;0.95;;;0.68;;
36353;SDS011;22383;51.114;13.666;2023-04-24T04:16:21;1.58;;;0.82;;
36353;SDS011;22383;51.114;13.666;2023-04-24T04:18:51;0.77;;;0.40;;
36353;SDS011;22383;51.114;13.666;2023-04-24T04:21:19;1.10;;;0.68;;
36353;SDS011;22383;51.114;13.666;2023-04-24T04:23:48;2.75;;;0.60;;
36353;SDS011;22383;51.114;13.666;2023-04-24T04:26:19;1.63;;;0.68;;
36353;SDS011;22383;51.114;13.666;2023-04-24T04:29:08;0.90;;;0.60;;
36353;SDS011;22383;51.114;13.666;2023-04-24T04:31:39;2.30;;;0.95;;
36353;SDS011;22383;51.114;13.666;2023-04-24T04:34:10;1.60;;;0.60;;
36353;SDS011;22383;51.114;13.666;2023-04-24T04:36:40;1.00;;;0.73;;
36353;SDS011;22383;51.114;13.666;2023-04-24T04:39:22;2.30;;;0.60;;
36353;SDS011;22383;51.114;13.666;2023-04-24T04:42:20;1.75;;;1.30;;
36353;SDS011;22383;51.114;13.666;2023-04-24T04:44:50;2.25;;;1.10;;
36353;SDS011;22383;51.114;13.666;2023-04-24T04:47:22;1.70;;;0.73;;
36353;SDS011;22383;51.114;13.666;2023-04-24T04:49:56;1.98;;;0.70;;
36353;SDS011;22383;51.114;13.666;2023-04-24T04:52:26;1.42;;;0.93;;
36353;SDS011;22383;51.114;13.666;2023-04-24T04:55:25;0.80;;;0.60;;
36353;SDS011;22383;51.114;13.666;2023-04-24T04:58:10;1.73;;;0.70;;
36353;SDS011;22383;51.114;13.666;2023-04-24T05:00:37;0.95;;;0.68;;
36353;SDS011;22383;51.114;13.666;2023-04-24T05:03:15;1.10;;;0.63;;
36353;SDS011;22383;51.114;13.666;2023-04-24T05:05:54;1.58;;;0.73;;
36353;SDS011;22383;51.114;13.666;2023-04-24T05:08:23;0.82;;;0.50;;
36353;SDS011;22383;51.114;13.666;2023-04-24T05:10:54;0.68;;;0.50;;
36353;SDS011;22383;51.114;13.666;2023-04-24T05:13:23;2.38;;;0.77;;
36353;SDS011;22383;51.114;13.666;2023-04-24T05:16:17;0.50;;;0.40;;
36353;SDS011;22383;51.114;13.666;2023-04-24T05:18:46;1.08;;;0.60;;
36353;SDS011;22383;51.114;13.666;2023-04-24T05:21:17;0.90;;;0.57;;
36353;SDS011;22383;51.114;13.666;2023-04-24T05:23:48;2.08;;;0.82;;
36353;SDS011;22383;51.114;13.666;2023-04-24T05:26:24;4.13;;;0.85;;
36353;SDS011;22383;51.114;13.666;2023-04-24T05:28:53;1.27;;;0.63;;
36353;SDS011;22383;51.114;13.666;2023-04-24T05:31:20;1.00;;;0.63;;
36353;SDS011;22383;51.114;13.666;2023-04-24T05:33:50;3.45;;;1.10;;
36353;SDS011;22383;51.114;13.666;2023-04-24T05:36:17;0.73;;;0.52;;
36353;SDS011;22383;51.114;13.666;2023-04-24T05:38:45;1.30;;;0.80;;
36353;SDS011;22383;51.114;13.666;2023-04-24T05:41:12;1.10;;;0.70;;
36353;SDS011;22383;51.114;13.666;2023-04-24T05:43:39;2.72;;;0.80;;
36353;SDS011;22383;51.114;13.666;2023-04-24T05:46:07;1.00;;;0.70;;
36353;SDS011;22383;51.114;13.666;2023-04-24T05:48:35;1.10;;;0.90;;
36353;SDS011;22383;51.114;13.666;2023-04-24T05:51:03;3.08;;;0.60;;
36353;SDS011;22383;51.114;13.666;2023-04-24T05:53:30;1.05;;;0.70;;
36353;SDS011;22383;51.114;13.666;2023-04-24T05:55:58;1.33;;;0.80;;
36353;SDS011;22383;51.114;13.666;2023-04-24T05:58:26;0.98;;;0.75;;
36353;SDS011;22383;51.114;13.666;2023-04-24T06:00:54;0.70;;;0.60;;
36353;SDS011;22383;51.114;13.666;2023-04-24T06:03:22;1.00;;;0.75;;
36353;SDS011;22383;51.114;13.666;2023-04-24T06:05:50;0.77;;;0.63;;
36353;SDS011;22383;51.114;13.666;2023-04-24T06:10:47;1.10;;;1.00;;
36353;SDS011;22383;51.114;13.666;2023-04-24T06:13:16;1.17;;;0.50;;
36353;SDS011;22383;51.114;13.666;2023-04-24T06:15:59;3.97;;;1.33;;
36353;SDS011;22383;51.114;13.666;2023-04-24T06:18:32;1.60;;;0.55;;
36353;SDS011;22383;51.114;13.666;2023-04-24T06:21:00;0.80;;;0.52;;
36353;SDS011;22383;51.114;13.666;2023-04-24T06:23:29;2.10;;;1.00;;
36353;SDS011;22383;51.114;13.666;2023-04-24T06:25:59;1.33;;;0.80;;
36353;SDS011;22383;51.114;13.666;2023-04-24T06:28:27;2.83;;;1.10;;
36353;SDS011;22383;51.114;13.666;2023-04-24T06:30:54;7.60;;;0.77;;
36353;SDS011;22383;51.114;13.666;2023-04-24T06:33:24;3.40;;;0.85;;
36353;SDS011;22383;51.114;13.666;2023-04-24T06:35:51;1.95;;;0.88;;
36353;SDS011;22383;51.114;13.666;2023-04-24T06:38:23;0.80;;;0.55;;
36353;SDS011;22383;51.114;13.666;2023-04-24T06:40:55;1.55;;;0.50;;
36353;SDS011;22383;51.114;13.666;2023-04-24T06:43:23;2.70;;;0.80;;
36353;SDS011;22383;51.114;13.666;2023-04-24T06:45:50;0.77;;;0.40;;
36353;SDS011;22383;51.114;13.666;2023-04-24T06:48:17;1.38;;;0.95;;
36353;SDS011;22383;51.114;13.666;2023-04-24T06:50:45;1.70;;;0.70;;
36353;SDS011;22383;51.114;13.666;2023-04-24T06:53:13;1.40;;;0.85;;
36353;SDS011;22383;51.114;13.666;2023-04-24T06:55:41;1.55;;;0.70;;
36353;SDS011;22383;51.114;13.666;2023-04-24T06:58:10;0.80;;;0.63;;
36353;SDS011;22383;51.114;13.666;2023-04-24T07:03:04;1.38;;;0.70;;
36353;SDS011;22383;51.114;13.666;2023-04-24T07:08:02;2.88;;;0.50;;
36353;SDS011;22383;51.114;13.666;2023-04-24T07:10:30;0.63;;;0.50;;
36353;SDS011;22383;51.114;13.666;2023-04-24T07:12:58;3.80;;;0.75;;
36353;SDS011;22383;51.114;13.666;2023-04-24T07:15:25;2.53;;;0.45;;
36353;SDS011;22383;51.114;13.666;2023-04-24T07:17:53;0.80;;;0.60;;
36353;SDS011;22383;51.114;13.666;2023-04-24T07:20:20;1.65;;;0.52;;
36353;SDS011;22383;51.114;13.666;2023-04-24T07:22:47;1.40;;;0.70;;
36353;SDS011;22383;51.114;13.666;2023-04-24T07:25:19;1.48;;;0.77;;
36353;SDS011;22383;51.114;13.666;2023-04-24T07:27:46;4.40;;;0.82;;
36353;SDS011;22383;51.114;13.666;2023-04-24T07:30:13;1.98;;;0.52;;
36353;SDS011;22383;51.114;13.666;2023-04-24T07:32:43;0.73;;;0.50;;
36353;SDS011;22383;51.114;13.666;2023-04-24T07:35:10;2.47;;;1.00;;
36353;SDS011;22383;51.114;13.666;2023-04-24T07:37:37;1.20;;;0.82;;
36353;SDS011;22383;51.114;13.666;2023-04-24T07:40:08;7.18;;;0.88;;
36353;SDS011;22383;51.114;13.666;2023-04-24T07:42:35;3.30;;;0.80;;
36353;SDS011;22383;51.114;13.666;2023-04-24T07:45:03;1.38;;;0.45;;
36353;SDS011;22383;51.114;13.666;2023-04-24T07:47:31;3.33;;;0.40;;
36353;SDS011;22383;51.114;13.666;2023-04-24T07:50:06;1.10;;;0.65;;
36353;SDS011;22383;51.114;13.666;2023-04-24T07:52:34;1.83;;;0.82;;
36353;SDS011;22383;51.114;13.666;2023-04-24T07:55:01;0.77;;;0.50;;
36353;SDS011;22383;51.114;13.666;2023-04-24T07:57:29;2.70;;;0.60;;
36353;SDS011;22383;51.114;13.666;2023-04-24T07:59:56;0.38;;;0.38;;
36353;SDS011;22383;51.114;13.666;2023-04-24T08:02:23;2.63;;;0.40;;
36353;SDS011;22383;51.114;13.666;2023-04-24T08:04:53;5.15;;;0.52;;
36353;SDS011;22383;51.114;13.666;2023-04-24T08:07:23;0.95;;;0.52;;
36353;SDS011;22383;51.114;13.666;2023-04-24T08:09:50;2.47;;;0.60;;
36353;SDS011;22383;51.114;13.666;2023-04-24T08:12:18;1.95;;;0.70;;
36353;SDS011;22383;51.114;13.666;2023-04-24T08:14:45;0.70;;;0.50;;
36353;SDS011;22383;51.114;13.666;2023-04-24T08:17:12;0.80;;;0.50;;
36353;SDS011;22383;51.114;13.666;2023-04-24T08:19:40;0.88;;;0.52;;
36353;SDS011;22383;51.114;13.666;2023-04-24T08:22:15;1.70;;;0.57;;
36353;SDS011;22383;51.114;13.666;2023-04-24T08:24:43;1.05;;;0.68;;
36353;SDS011;22383;51.114;13.666;2023-04-24T08:27:10;1.38;;;0.40;;
36353;SDS011;22383;51.114;13.666;2023-04-24T08:29:37;2.42;;;0.60;;
36353;SDS011;22383;51.114;13.666;2023-04-24T08:32:05;2.75;;;0.52;;
36353;SDS011;22383;51.114;13.666;2023-04-24T08:34:35;1.20;;;0.63;;
36353;SDS011;22383;51.114;13.666;2023-04-24T08:37:04;3.00;;;1.83;;
36353;SDS011;22383;51.114;13.666;2023-04-24T08:39:31;1.23;;;0.93;;
36353;SDS011;22383;51.114;13.666;2023-04-24T08:41:59;0.90;;;0.63;;
36353;SDS011;22383;51.114;13.666;2023-04-24T08:44:32;0.50;;;0.47;;
36353;SDS011;22383;51.114;13.666;2023-04-24T08:46:59;0.55;;;0.40;;
36353;SDS011;22383;51.114;13.666;2023-04-24T08:49:29;0.93;;;0.57;;
36353;SDS011;22383;51.114;13.666;2023-04-24T08:51:56;2.53;;;0.45;;
36353;SDS011;22383;51.114;13.666;2023-04-24T08:54:24;0.60;;;0.30;;
36353;SDS011;22383;51.114;13.666;2023-04-24T08:59:20;0.30;;;0.30;;
36353;SDS011;22383;51.114;13.666;2023-04-24T09:01:49;0.40;;;0.30;;
36353;SDS011;22383;51.114;13.666;2023-04-24T09:04:19;0.60;;;0.43;;
36353;SDS011;22383;51.114;13.666;2023-04-24T09:06:49;2.47;;;0.63;;
36353;SDS011;22383;51.114;13.666;2023-04-24T09:09:17;0.52;;;0.40;;
36353;SDS011;22383;51.114;13.666;2023-04-24T09:11:57;0.50;;;0.40;;
36353;SDS011;22383;51.114;13.666;2023-04-24T09:14:25;0.30;;;0.30;;
36353;SDS011;22383;51.114;13.666;2023-04-24T09:16:58;1.52;;;0.80;;
36353;SDS011;22383;51.114;13.666;2023-04-24T09:19:25;5.85;;;0.60;;
36353;SDS011;22383;51.114;13.666;2023-04-24T09:21:53;1.17;;;0.57;;
36353;SDS011;22383;51.114;13.666;2023-04-24T09:24:21;1.15;;;0.50;;
36353;SDS011;22383;51.114;13.666;2023-04-24T09:26:57;1.75;;;0.70;;
36353;SDS011;22383;51.114;13.666;2023-04-24T09:29:26;1.02;;;0.52;;
36353;SDS011;22383;51.114;13.666;2023-04-24T09:31:53;0.70;;;0.50;;
36353;SDS011;22383;51.114;13.666;2023-04-24T09:36:53;4.20;;;0.88;;
36353;SDS011;22383;51.114;13.666;2023-04-24T09:39:21;1.55;;;0.57;;
36353;SDS011;22383;51.114;13.666;2023-04-24T09:44:27;1.48;;;0.60;;
36353;SDS011;22383;51.114;13.666;2023-04-24T09:46:56;1.23;;;0.50;;
36353;SDS011;22383;51.114;13.666;2023-04-24T09:49:30;0.38;;;0.38;;
36353;SDS011;22383;51.114;13.666;2023-04-24T09:52:11;1.85;;;0.47;;
36353;SDS011;22383;51.114;13.666;2023-04-24T09:54:39;1.30;;;0.40;;
36353;SDS011;22383;51.114;13.666;2023-04-24T09:57:09;0.98;;;0.60;;
36353;SDS011;22383;51.114;13.666;2023-04-24T09:59:41;0.47;;;0.40;;
36353;SDS011;22383;51.114;13.666;2023-04-24T10:02:17;1.77;;;0.35;;
36353;SDS011;22383;51.114;13.666;2023-04-24T10:04:54;3.70;;;0.90;;
36353;SDS011;22383;51.114;13.666;2023-04-24T10:07:40;0.40;;;0.38;;
36353;SDS011;22383;51.114;13.666;2023-04-24T10:10:10;1.00;;;0.40;;
36353;SDS011;22383;51.114;13.666;2023-04-24T10:12:38;1.38;;;0.50;;
36353;SDS011;22383;51.114;13.666;2023-04-24T10:17:33;0.63;;;0.63;;
36353;SDS011;22383;51.114;13.666;2023-04-24T10:20:05;1.13;;;0.50;;
36353;SDS011;22383;51.114;13.666;2023-04-24T10:22:36;0.28;;;0.28;;
36353;SDS011;22383;51.114;13.666;2023-04-24T10:25:05;0.40;;;0.32;;
36353;SDS011;22383;51.114;13.666;2023-04-24T10:27:42;2.47;;;0.60;;
36353;SDS011;22383;51.114;13.666;2023-04-24T10:30:10;1.25;;;0.47;;
36353;SDS011;22383;51.114;13.666;2023-04-24T10:32:39;0.45;;;0.22;;
36353;SDS011;22383;51.114;13.666;2023-04-24T10:35:13;2.92;;;0.40;;
36353;SDS011;22383;51.114;13.666;2023-04-24T10:37:50;2.28;;;0.47;;
36353;SDS011;22383;51.114;13.666;2023-04-24T10:40:34;1.30;;;0.40;;
36353;SDS011;22383;51.114;13.666;2023-04-24T10:43:03;0.20;;;0.20;;
36353;SDS011;22383;51.114;13.666;2023-04-24T10:45:33;0.65;;;0.40;;
36353;SDS011;22383;51.114;13.666;2023-04-24T10:48:04;0.82;;;0.45;;
36353;SDS011;22383;51.114;13.666;2023-04-24T10:50:47;0.63;;;0.22;;
36353;SDS011;22383;51.114;13.666;2023-04-24T10:53:25;0.50;;;0.43;;
36353;SDS011;22383;51.114;13.666;2023-04-24T10:55:58;0.68;;;0.30;;
36353;SDS011;22383;51.114;13.666;2023-04-24T10:58:44;2.17;;;0.30;;
36353;SDS011;22383;51.114;13.666;2023-04-24T11:01:26;0.35;;;0.25;;
36353;SDS011;22383;51.114;13.666;2023-04-24T11:03:56;1.58;;;0.47;;
36353;SDS011;22383;51.114;13.666;2023-04-24T11:06:33;2.65;;;0.47;;
36353;SDS011;22383;51.114;13.666;2023-04-24T11:09:04;0.63;;;0.40;;
36353;SDS011;22383;51.114;13.666;2023-04-24T11:11:33;1.38;;;0.60;;
36353;SDS011;22383;51.114;13.666;2023-04-24T11:14:02;3.10;;;0.50;;
36353;SDS011;22383;51.114;13.666;2023-04-24T11:19:09;1.73;;;0.55;;
36353;SDS011;22383;51.114;13.666;2023-04-24T11:21:45;0.60;;;0.52;;
36353;SDS011;22383;51.114;13.666;2023-04-24T11:24:50;2.53;;;0.73;;
36353;SDS011;22383;51.114;13.666;2023-04-24T11:27:30;0.73;;;0.40;;
36353;SDS011;22383;51.114;13.666;2023-04-24T11:30:03;1.10;;;0.65;;
36353;SDS011;22383;51.114;13.666;2023-04-24T11:32:39;4.88;;;0.50;;
36353;SDS011;22383;51.114;13.666;2023-04-24T11:35:21;0.52;;;0.40;;
36353;SDS011;22383;51.114;13.666;2023-04-24T11:37:56;1.10;;;0.40;;
36353;SDS011;22383;51.114;13.666;2023-04-24T11:40:29;1.15;;;0.70;;
36353;SDS011;22383;51.114;13.666;2023-04-24T11:43:02;0.70;;;0.30;;
36353;SDS011;22383;51.114;13.666;2023-04-24T11:45:33;2.25;;;1.13;;
36353;SDS011;22383;51.114;13.666;2023-04-24T11:48:20;1.42;;;0.52;;
36353;SDS011;22383;51.114;13.666;2023-04-24T11:50:50;1.20;;;0.40;;
36353;SDS011;22383;51.114;13.666;2023-04-24T11:53:21;0.30;;;0.30;;
36353;SDS011;22383;51.114;13.666;2023-04-24T11:55:49;1.52;;;0.47;;
36353;SDS011;22383;51.114;13.666;2023-04-24T11:58:20;0.45;;;0.40;;
36353;SDS011;22383;51.114;13.666;2023-04-24T12:00:55;0.65;;;0.40;;
36353;SDS011;22383;51.114;13.666;2023-04-24T12:03:24;1.50;;;0.50;;
36353;SDS011;22383;51.114;13.666;2023-04-24T12:06:10;5.68;;;0.60;;
36353;SDS011;22383;51.114;13.666;2023-04-24T12:08:41;0.60;;;0.40;;
36353;SDS011;22383;51.114;13.666;2023-04-24T12:11:09;2.08;;;0.90;;
36353;SDS011;22383;51.114;13.666;2023-04-24T12:13:42;0.93;;;0.60;;
36353;SDS011;22383;51.114;13.666;2023-04-24T12:16:12;0.65;;;0.50;;
36353;SDS011;22383;51.114;13.666;2023-04-24T12:18:44;0.25;;;0.25;;
36353;SDS011;22383;51.114;13.666;2023-04-24T12:21:21;0.85;;;0.40;;
36353;SDS011;22383;51.114;13.666;2023-04-24T12:23:55;1.98;;;0.50;;
36353;SDS011;22383;51.114;13.666;2023-04-24T12:26:22;1.20;;;0.35;;
36353;SDS011;22383;51.114;13.666;2023-04-24T12:29:00;4.60;;;0.70;;
36353;SDS011;22383;51.114;13.666;2023-04-24T12:31:34;9.07;;;0.75;;
36353;SDS011;22383;51.114;13.666;2023-04-24T12:34:22;8.68;;;1.33;;
36353;SDS011;22383;51.114;13.666;2023-04-24T12:36:56;2.92;;;0.63;;
36353;SDS011;22383;51.114;13.666;2023-04-24T12:39:46;0.50;;;0.50;;
36353;SDS011;22383;51.114;13.666;2023-04-24T12:42:41;1.58;;;0.35;;
36353;SDS011;22383;51.114;13.666;2023-04-24T12:45:13;2.38;;;0.93;;
36353;SDS011;22383;51.114;13.666;2023-04-24T12:47:52;1.10;;;0.52;;
36353;SDS011;22383;51.114;13.666;2023-04-24T12:50:22;1.05;;;0.60;;
36353;SDS011;22383;51.114;13.666;2023-04-24T12:52:49;0.63;;;0.38;;
36353;SDS011;22383;51.114;13.666;2023-04-24T12:55:26;1.00;;;0.40;;
36353;SDS011;22383;51.114;13.666;2023-04-24T12:57:55;1.65;;;0.85;;
36353;SDS011;22383;51.114;13.666;2023-04-24T13:00:29;1.10;;;0.32;;
36353;SDS011;22383;51.114;13.666;2023-04-24T13:02:57;3.63;;;0.40;;
36353;SDS011;22383;51.114;13.666;2023-04-24T13:05:28;0.57;;;0.57;;
36353;SDS011;22383;51.114;13.666;2023-04-24T13:07:57;5.00;;;1.02;;
36353;SDS011;22383;51.114;13.666;2023-04-24T13:10:28;1.75;;;0.70;;
36353;SDS011;22383;51.114;13.666;2023-04-24T13:12:56;4.18;;;1.15;;
36353;SDS011;22383;51.114;13.666;2023-04-24T13:15:26;5.78;;;0.50;;
36353;SDS011;22383;51.114;13.666;2023-04-24T13:17:53;2.97;;;0.40;;
36353;SDS011;22383;51.114;13.666;2023-04-24T13:20:24;4.07;;;0.50;;
36353;SDS011;22383;51.114;13.666;2023-04-24T13:22:53;2.70;;;0.50;;
36353;SDS011;22383;51.114;13.666;2023-04-24T13:25:21;0.55;;;0.52;;
36353;SDS011;22383;51.114;13.666;2023-04-24T13:27:50;2.15;;;0.50;;
36353;SDS011;22383;51.114;13.666;2023-04-24T13:30:20;2.20;;;0.95;;
36353;SDS011;22383;51.114;13.666;2023-04-24T13:32:51;6.07;;;0.50;;
36353;SDS011;22383;51.114;13.666;2023-04-24T13:35:32;0.40;;;0.40;;
36353;SDS011;22383;51.114;13.666;2023-04-24T13:38:03;1.25;;;0.40;;
36353;SDS011;22383;51.114;13.666;2023-04-24T13:40:39;1.23;;;0.30;;
36353;SDS011;22383;51.114;13.666;2023-04-24T13:43:06;0.82;;;0.35;;
36353;SDS011;22383;51.114;13.666;2023-04-24T13:45:33;0.45;;;0.43;;
36353;SDS011;22383;51.114;13.666;2023-04-24T13:48:03;3.55;;;0.98;;
36353;SDS011;22383;51.114;13.666;2023-04-24T13:50:35;0.68;;;0.45;;
36353;SDS011;22383;51.114;13.666;2023-04-24T13:53:06;1.27;;;0.50;;
36353;SDS011;22383;51.114;13.666;2023-04-24T13:55:33;2.28;;;0.80;;
36353;SDS011;22383;51.114;13.666;2023-04-24T13:58:07;0.77;;;0.60;;
36353;SDS011;22383;51.114;13.666;2023-04-24T14:00:40;0.60;;;0.50;;
36353;SDS011;22383;51.114;13.666;2023-04-24T14:03:07;0.43;;;0.40;;
36353;SDS011;22383;51.114;13.666;2023-04-24T14:05:38;0.80;;;0.60;;
36353;SDS011;22383;51.114;13.666;2023-04-24T14:08:09;1.65;;;0.68;;
36353;SDS011;22383;51.114;13.666;2023-04-24T14:10:37;0.90;;;0.30;;
36353;SDS011;22383;51.114;13.666;2023-04-24T14:13:10;0.95;;;0.68;;
36353;SDS011;22383;51.114;13.666;2023-04-24T14:15:43;1.38;;;0.60;;
36353;SDS011;22383;51.114;13.666;2023-04-24T14:18:16;3.13;;;0.65;;
36353;SDS011;22383;51.114;13.666;2023-04-24T14:20:46;1.05;;;0.80;;
36353;SDS011;22383;51.114;13.666;2023-04-24T14:23:16;1.50;;;0.40;;
36353;SDS011;22383;51.114;13.666;2023-04-24T14:25:46;0.75;;;0.50;;
36353;SDS011;22383;51.114;13.666;2023-04-24T14:28:18;0.75;;;0.60;;
36353;SDS011;22383;51.114;13.666;2023-04-24T14:30:52;2.88;;;0.55;;
36353;SDS011;22383;51.114;13.666;2023-04-24T14:33:23;0.93;;;0.65;;
36353;SDS011;22383;51.114;13.666;2023-04-24T14:35:51;0.90;;;0.60;;
36353;SDS011;22383;51.114;13.666;2023-04-24T14:38:19;0.90;;;0.63;;
36353;SDS011;22383;51.114;13.666;2023-04-24T14:43:47;3.65;;;0.70;;
36353;SDS011;22383;51.114;13.666;2023-04-24T14:46:15;0.63;;;0.50;;
36353;SDS011;22383;51.114;13.666;2023-04-24T14:48:42;1.88;;;0.60;;
36353;SDS011;22383;51.114;13.666;2023-04-24T14:51:12;0.93;;;0.50;;
36353;SDS011;22383;51.114;13.666;2023-04-24T14:53:40;1.27;;;0.50;;
36353;SDS011;22383;51.114;13.666;2023-04-24T14:56:13;8.55;;;0.80;;
36353;SDS011;22383;51.114;13.666;2023-04-24T14:58:42;1.70;;;0.95;;
36353;SDS011;22383;51.114;13.666;2023-04-24T15:01:21;1.38;;;0.50;;
36353;SDS011;22383;51.114;13.666;2023-04-24T15:03:48;0.95;;;0.63;;
36353;SDS011;22383;51.114;13.666;2023-04-24T15:06:16;0.52;;;0.47;;
36353;SDS011;22383;51.114;13.666;2023-04-24T15:08:46;1.00;;;0.60;;
36353;SDS011;22383;51.114;13.666;2023-04-24T15:11:16;3.67;;;0.70;;
36353;SDS011;22383;51.114;13.666;2023-04-24T15:13:44;1.20;;;0.60;;
36353;SDS011;22383;51.114;13.666;2023-04-24T15:16:13;0.35;;;0.30;;
36353;SDS011;22383;51.114;13.666;2023-04-24T15:18:41;0.47;;;0.43;;
36353;SDS011;22383;51.114;13.666;2023-04-24T15:21:08;0.70;;;0.55;;